Terminal Aerodrome Forecast
Issued by NWS Quad Cities IA IL

Home | Current Version | Previous Version | Text Only | Print | Product List | Glossary On
Versions: 1 2 3 4 5 6 7 8 9 10 11 12 13 14 15 16 17 18 19 20 21
000
FTUS43 KDVN 242200 AAA
TAFDBQ
TAF AMD
KDBQ 242209Z 2422/2518 16012KT P6SM OVC080
     FM242300 20007KT 6SM -RA BR OVC035
     FM250100 31008KT 6SM -RA BR BKN030
     FM250600 32011KT P6SM SKC=

USA.gov is the U.S. government's official web portal to all federal, state and local government web resources and services.